sensor_id;sensor_type;location;lat;lon;timestamp;P1;durP1;ratioP1;P2;durP2;ratioP2
16346;SDS011;8283;48.504;13.734;2024-02-14T00:00:30;3.63;;;2.00;;
16346;SDS011;8283;48.504;13.734;2024-02-14T00:02:50;2.15;;;1.30;;
16346;SDS011;8283;48.504;13.734;2024-02-14T00:05:10;2.90;;;1.75;;
16346;SDS011;8283;48.504;13.734;2024-02-14T00:07:30;4.10;;;1.25;;
16346;SDS011;8283;48.504;13.734;2024-02-14T00:09:50;2.10;;;1.40;;
16346;SDS011;8283;48.504;13.734;2024-02-14T00:12:09;2.83;;;1.70;;
16346;SDS011;8283;48.504;13.734;2024-02-14T00:14:30;2.65;;;2.45;;
16346;SDS011;8283;48.504;13.734;2024-02-14T00:16:50;3.72;;;1.63;;
16346;SDS011;8283;48.504;13.734;2024-02-14T00:19:09;2.65;;;1.90;;
16346;SDS011;8283;48.504;13.734;2024-02-14T00:21:29;2.60;;;2.00;;
16346;SDS011;8283;48.504;13.734;2024-02-14T00:23:48;2.72;;;1.92;;
16346;SDS011;8283;48.504;13.734;2024-02-14T00:26:07;2.97;;;1.60;;
16346;SDS011;8283;48.504;13.734;2024-02-14T00:28:27;3.17;;;1.42;;
16346;SDS011;8283;48.504;13.734;2024-02-14T00:30:46;3.58;;;1.70;;
16346;SDS011;8283;48.504;13.734;2024-02-14T00:33:05;3.47;;;1.63;;
16346;SDS011;8283;48.504;13.734;2024-02-14T00:35:25;2.50;;;1.80;;
16346;SDS011;8283;48.504;13.734;2024-02-14T00:37:44;2.90;;;1.60;;
16346;SDS011;8283;48.504;13.734;2024-02-14T00:40:04;1.83;;;1.33;;
16346;SDS011;8283;48.504;13.734;2024-02-14T00:42:24;2.80;;;1.67;;
16346;SDS011;8283;48.504;13.734;2024-02-14T00:44:44;2.03;;;1.52;;
16346;SDS011;8283;48.504;13.734;2024-02-14T00:47:03;2.30;;;1.58;;
16346;SDS011;8283;48.504;13.734;2024-02-14T00:49:22;4.03;;;2.10;;
16346;SDS011;8283;48.504;13.734;2024-02-14T00:51:42;2.38;;;1.48;;
16346;SDS011;8283;48.504;13.734;2024-02-14T00:54:01;2.30;;;1.42;;
16346;SDS011;8283;48.504;13.734;2024-02-14T00:56:20;2.80;;;2.08;;
16346;SDS011;8283;48.504;13.734;2024-02-14T00:58:42;3.92;;;2.25;;
16346;SDS011;8283;48.504;13.734;2024-02-14T01:01:01;4.43;;;2.05;;
16346;SDS011;8283;48.504;13.734;2024-02-14T01:03:20;5.35;;;2.22;;
16346;SDS011;8283;48.504;13.734;2024-02-14T01:05:40;3.60;;;1.85;;
16346;SDS011;8283;48.504;13.734;2024-02-14T01:08:00;5.05;;;2.30;;
16346;SDS011;8283;48.504;13.734;2024-02-14T01:10:19;4.40;;;2.05;;
16346;SDS011;8283;48.504;13.734;2024-02-14T01:12:39;3.95;;;2.60;;
16346;SDS011;8283;48.504;13.734;2024-02-14T01:14:58;3.45;;;1.90;;
16346;SDS011;8283;48.504;13.734;2024-02-14T01:17:18;3.78;;;1.58;;
16346;SDS011;8283;48.504;13.734;2024-02-14T01:19:37;2.35;;;1.83;;
16346;SDS011;8283;48.504;13.734;2024-02-14T01:21:57;3.30;;;2.15;;
16346;SDS011;8283;48.504;13.734;2024-02-14T01:24:16;2.38;;;1.67;;
16346;SDS011;8283;48.504;13.734;2024-02-14T01:26:35;2.67;;;1.50;;
16346;SDS011;8283;48.504;13.734;2024-02-14T01:28:55;1.98;;;1.73;;
16346;SDS011;8283;48.504;13.734;2024-02-14T01:31:14;4.13;;;2.47;;
16346;SDS011;8283;48.504;13.734;2024-02-14T01:33:34;4.03;;;1.55;;
16346;SDS011;8283;48.504;13.734;2024-02-14T01:35:53;2.97;;;1.80;;
16346;SDS011;8283;48.504;13.734;2024-02-14T01:38:14;2.73;;;1.80;;
16346;SDS011;8283;48.504;13.734;2024-02-14T01:40:34;2.03;;;1.48;;
16346;SDS011;8283;48.504;13.734;2024-02-14T01:42:53;2.65;;;1.70;;
16346;SDS011;8283;48.504;13.734;2024-02-14T01:45:14;2.45;;;1.73;;
16346;SDS011;8283;48.504;13.734;2024-02-14T01:47:33;2.85;;;1.55;;
16346;SDS011;8283;48.504;13.734;2024-02-14T01:49:53;2.13;;;1.55;;
16346;SDS011;8283;48.504;13.734;2024-02-14T01:52:12;2.58;;;1.65;;
16346;SDS011;8283;48.504;13.734;2024-02-14T01:54:33;2.13;;;1.50;;
16346;SDS011;8283;48.504;13.734;2024-02-14T01:59:13;1.80;;;1.42;;
16346;SDS011;8283;48.504;13.734;2024-02-14T02:01:35;3.40;;;1.70;;
16346;SDS011;8283;48.504;13.734;2024-02-14T02:03:54;2.80;;;1.60;;
16346;SDS011;8283;48.504;13.734;2024-02-14T02:06:14;2.25;;;1.42;;
16346;SDS011;8283;48.504;13.734;2024-02-14T02:08:34;3.67;;;1.83;;
16346;SDS011;8283;48.504;13.734;2024-02-14T02:10:54;1.65;;;1.35;;
16346;SDS011;8283;48.504;13.734;2024-02-14T02:13:13;3.45;;;1.85;;
16346;SDS011;8283;48.504;13.734;2024-02-14T02:15:34;2.72;;;1.75;;
16346;SDS011;8283;48.504;13.734;2024-02-14T02:17:54;1.95;;;1.55;;
16346;SDS011;8283;48.504;13.734;2024-02-14T02:20:14;1.77;;;1.50;;
16346;SDS011;8283;48.504;13.734;2024-02-14T02:22:36;2.28;;;1.70;;
16346;SDS011;8283;48.504;13.734;2024-02-14T02:24:55;2.35;;;1.70;;
16346;SDS011;8283;48.504;13.734;2024-02-14T02:27:14;2.72;;;1.52;;
16346;SDS011;8283;48.504;13.734;2024-02-14T02:29:35;3.27;;;1.90;;
16346;SDS011;8283;48.504;13.734;2024-02-14T02:31:56;3.55;;;1.67;;
16346;SDS011;8283;48.504;13.734;2024-02-14T02:34:16;1.92;;;1.58;;
16346;SDS011;8283;48.504;13.734;2024-02-14T02:36:36;3.72;;;2.33;;
16346;SDS011;8283;48.504;13.734;2024-02-14T02:38:56;2.13;;;1.63;;
16346;SDS011;8283;48.504;13.734;2024-02-14T02:41:17;1.90;;;1.60;;
16346;SDS011;8283;48.504;13.734;2024-02-14T02:43:36;2.58;;;1.80;;
16346;SDS011;8283;48.504;13.734;2024-02-14T02:45:55;4.05;;;1.80;;
16346;SDS011;8283;48.504;13.734;2024-02-14T02:48:16;3.58;;;1.88;;
16346;SDS011;8283;48.504;13.734;2024-02-14T02:50:35;2.17;;;1.58;;
16346;SDS011;8283;48.504;13.734;2024-02-14T02:52:55;4.13;;;2.05;;
16346;SDS011;8283;48.504;13.734;2024-02-14T02:55:16;2.80;;;1.60;;
16346;SDS011;8283;48.504;13.734;2024-02-14T02:57:36;3.03;;;1.63;;
16346;SDS011;8283;48.504;13.734;2024-02-14T03:02:17;3.50;;;1.80;;
16346;SDS011;8283;48.504;13.734;2024-02-14T03:04:38;2.53;;;1.50;;
16346;SDS011;8283;48.504;13.734;2024-02-14T03:06:58;2.33;;;1.92;;
16346;SDS011;8283;48.504;13.734;2024-02-14T03:09:17;2.42;;;2.22;;
16346;SDS011;8283;48.504;13.734;2024-02-14T03:11:37;2.05;;;1.83;;
16346;SDS011;8283;48.504;13.734;2024-02-14T03:13:57;2.67;;;2.00;;
16346;SDS011;8283;48.504;13.734;2024-02-14T03:16:16;2.97;;;1.77;;
16346;SDS011;8283;48.504;13.734;2024-02-14T03:18:36;3.40;;;1.92;;
16346;SDS011;8283;48.504;13.734;2024-02-14T03:20:57;2.20;;;1.95;;
16346;SDS011;8283;48.504;13.734;2024-02-14T03:23:17;4.80;;;2.50;;
16346;SDS011;8283;48.504;13.734;2024-02-14T03:25:36;3.13;;;1.90;;
16346;SDS011;8283;48.504;13.734;2024-02-14T03:27:56;2.15;;;1.70;;
16346;SDS011;8283;48.504;13.734;2024-02-14T03:30:17;2.45;;;2.25;;
16346;SDS011;8283;48.504;13.734;2024-02-14T03:32:37;2.80;;;1.70;;
16346;SDS011;8283;48.504;13.734;2024-02-14T03:34:56;2.42;;;1.75;;
16346;SDS011;8283;48.504;13.734;2024-02-14T03:37:16;2.58;;;1.90;;
16346;SDS011;8283;48.504;13.734;2024-02-14T03:39:36;3.03;;;2.20;;
16346;SDS011;8283;48.504;13.734;2024-02-14T03:41:56;2.42;;;1.88;;
16346;SDS011;8283;48.504;13.734;2024-02-14T03:44:15;2.25;;;1.92;;
16346;SDS011;8283;48.504;13.734;2024-02-14T03:46:35;1.92;;;1.73;;
16346;SDS011;8283;48.504;13.734;2024-02-14T03:48:54;3.78;;;2.22;;
16346;SDS011;8283;48.504;13.734;2024-02-14T03:51:13;3.25;;;2.05;;
16346;SDS011;8283;48.504;13.734;2024-02-14T03:53:34;2.30;;;1.70;;
16346;SDS011;8283;48.504;13.734;2024-02-14T03:55:53;2.05;;;1.73;;
16346;SDS011;8283;48.504;13.734;2024-02-14T03:58:12;2.88;;;1.95;;
16346;SDS011;8283;48.504;13.734;2024-02-14T04:00:33;2.63;;;1.92;;
16346;SDS011;8283;48.504;13.734;2024-02-14T04:02:54;1.97;;;1.70;;
16346;SDS011;8283;48.504;13.734;2024-02-14T04:05:17;2.20;;;1.83;;
16346;SDS011;8283;48.504;13.734;2024-02-14T04:07:37;2.88;;;2.10;;
16346;SDS011;8283;48.504;13.734;2024-02-14T04:09:56;3.03;;;2.13;;
16346;SDS011;8283;48.504;13.734;2024-02-14T04:12:16;2.20;;;1.67;;
16346;SDS011;8283;48.504;13.734;2024-02-14T04:14:35;2.45;;;1.90;;
16346;SDS011;8283;48.504;13.734;2024-02-14T04:16:55;4.53;;;1.77;;
16346;SDS011;8283;48.504;13.734;2024-02-14T04:19:15;2.47;;;1.83;;
16346;SDS011;8283;48.504;13.734;2024-02-14T04:21:35;2.60;;;2.00;;
16346;SDS011;8283;48.504;13.734;2024-02-14T04:23:56;2.20;;;2.00;;
16346;SDS011;8283;48.504;13.734;2024-02-14T04:26:22;2.55;;;2.00;;
16346;SDS011;8283;48.504;13.734;2024-02-14T04:28:42;3.33;;;1.85;;
16346;SDS011;8283;48.504;13.734;2024-02-14T04:31:01;2.20;;;1.95;;
16346;SDS011;8283;48.504;13.734;2024-02-14T04:33:20;2.78;;;2.05;;
16346;SDS011;8283;48.504;13.734;2024-02-14T04:35:40;2.33;;;2.13;;
16346;SDS011;8283;48.504;13.734;2024-02-14T04:37:59;3.75;;;2.35;;
16346;SDS011;8283;48.504;13.734;2024-02-14T04:40:19;3.10;;;2.00;;
16346;SDS011;8283;48.504;13.734;2024-02-14T04:42:39;3.35;;;2.22;;
16346;SDS011;8283;48.504;13.734;2024-02-14T04:44:59;2.40;;;2.00;;
16346;SDS011;8283;48.504;13.734;2024-02-14T04:47:19;4.32;;;1.98;;
16346;SDS011;8283;48.504;13.734;2024-02-14T04:49:39;3.22;;;1.85;;
16346;SDS011;8283;48.504;13.734;2024-02-14T04:51:59;3.10;;;2.08;;
16346;SDS011;8283;48.504;13.734;2024-02-14T04:54:18;2.00;;;1.80;;
16346;SDS011;8283;48.504;13.734;2024-02-14T04:56:38;2.97;;;2.35;;
16346;SDS011;8283;48.504;13.734;2024-02-14T04:58:57;3.30;;;2.33;;
16346;SDS011;8283;48.504;13.734;2024-02-14T05:01:16;3.63;;;1.80;;
16346;SDS011;8283;48.504;13.734;2024-02-14T05:03:37;3.15;;;1.75;;
16346;SDS011;8283;48.504;13.734;2024-02-14T05:05:56;2.13;;;1.75;;
16346;SDS011;8283;48.504;13.734;2024-02-14T05:08:17;1.98;;;1.73;;
16346;SDS011;8283;48.504;13.734;2024-02-14T05:10:36;2.15;;;1.70;;
16346;SDS011;8283;48.504;13.734;2024-02-14T05:12:56;2.70;;;2.03;;
16346;SDS011;8283;48.504;13.734;2024-02-14T05:15:16;2.15;;;1.83;;
16346;SDS011;8283;48.504;13.734;2024-02-14T05:17:35;2.45;;;1.60;;
16346;SDS011;8283;48.504;13.734;2024-02-14T05:19:55;2.45;;;2.03;;
16346;SDS011;8283;48.504;13.734;2024-02-14T05:22:15;2.20;;;1.75;;
16346;SDS011;8283;48.504;13.734;2024-02-14T05:24:35;1.70;;;1.60;;
16346;SDS011;8283;48.504;13.734;2024-02-14T05:26:56;2.05;;;1.85;;
16346;SDS011;8283;48.504;13.734;2024-02-14T05:29:16;2.90;;;1.67;;
16346;SDS011;8283;48.504;13.734;2024-02-14T05:31:43;3.50;;;2.03;;
16346;SDS011;8283;48.504;13.734;2024-02-14T05:34:03;2.47;;;1.70;;
16346;SDS011;8283;48.504;13.734;2024-02-14T05:36:23;3.53;;;2.08;;
16346;SDS011;8283;48.504;13.734;2024-02-14T05:38:44;2.22;;;1.80;;
16346;SDS011;8283;48.504;13.734;2024-02-14T05:41:03;2.53;;;1.80;;
16346;SDS011;8283;48.504;13.734;2024-02-14T05:43:23;2.60;;;1.83;;
16346;SDS011;8283;48.504;13.734;2024-02-14T05:45:43;1.73;;;1.42;;
16346;SDS011;8283;48.504;13.734;2024-02-14T05:48:02;1.90;;;1.42;;
16346;SDS011;8283;48.504;13.734;2024-02-14T05:50:22;2.95;;;2.05;;
16346;SDS011;8283;48.504;13.734;2024-02-14T05:52:41;2.47;;;1.83;;
16346;SDS011;8283;48.504;13.734;2024-02-14T05:55:01;2.00;;;1.75;;
16346;SDS011;8283;48.504;13.734;2024-02-14T05:57:20;3.35;;;1.80;;
16346;SDS011;8283;48.504;13.734;2024-02-14T05:59:39;4.00;;;2.20;;
16346;SDS011;8283;48.504;13.734;2024-02-14T06:01:59;2.15;;;1.80;;
16346;SDS011;8283;48.504;13.734;2024-02-14T06:04:18;2.85;;;2.00;;
16346;SDS011;8283;48.504;13.734;2024-02-14T06:06:37;3.22;;;2.10;;
16346;SDS011;8283;48.504;13.734;2024-02-14T06:08:57;2.20;;;1.90;;
16346;SDS011;8283;48.504;13.734;2024-02-14T06:11:16;2.65;;;2.40;;
16346;SDS011;8283;48.504;13.734;2024-02-14T06:13:35;3.08;;;1.83;;
16346;SDS011;8283;48.504;13.734;2024-02-14T06:15:55;4.03;;;2.25;;
16346;SDS011;8283;48.504;13.734;2024-02-14T06:18:14;2.65;;;2.30;;
16346;SDS011;8283;48.504;13.734;2024-02-14T06:20:34;2.33;;;2.13;;
16346;SDS011;8283;48.504;13.734;2024-02-14T06:22:54;2.45;;;1.83;;
16346;SDS011;8283;48.504;13.734;2024-02-14T06:25:13;2.88;;;2.05;;
16346;SDS011;8283;48.504;13.734;2024-02-14T06:27:32;3.08;;;2.40;;
16346;SDS011;8283;48.504;13.734;2024-02-14T06:29:52;2.97;;;2.00;;
16346;SDS011;8283;48.504;13.734;2024-02-14T06:32:12;2.85;;;1.95;;
16346;SDS011;8283;48.504;13.734;2024-02-14T06:34:32;2.78;;;2.25;;
16346;SDS011;8283;48.504;13.734;2024-02-14T06:36:51;4.20;;;2.10;;
16346;SDS011;8283;48.504;13.734;2024-02-14T06:39:10;4.72;;;2.40;;
16346;SDS011;8283;48.504;13.734;2024-02-14T06:41:30;4.30;;;2.30;;
16346;SDS011;8283;48.504;13.734;2024-02-14T06:43:50;3.25;;;2.30;;
16346;SDS011;8283;48.504;13.734;2024-02-14T06:46:09;4.05;;;2.55;;
16346;SDS011;8283;48.504;13.734;2024-02-14T06:48:29;2.65;;;2.42;;
16346;SDS011;8283;48.504;13.734;2024-02-14T06:50:48;2.53;;;2.25;;
16346;SDS011;8283;48.504;13.734;2024-02-14T06:53:07;2.95;;;2.05;;
16346;SDS011;8283;48.504;13.734;2024-02-14T06:55:27;2.45;;;2.25;;
16346;SDS011;8283;48.504;13.734;2024-02-14T06:57:47;3.35;;;2.53;;
16346;SDS011;8283;48.504;13.734;2024-02-14T07:00:07;1.98;;;1.77;;
16346;SDS011;8283;48.504;13.734;2024-02-14T07:02:27;2.17;;;1.92;;
16346;SDS011;8283;48.504;13.734;2024-02-14T07:04:46;3.17;;;2.00;;
16346;SDS011;8283;48.504;13.734;2024-02-14T07:07:06;4.10;;;2.47;;
16346;SDS011;8283;48.504;13.734;2024-02-14T07:09:26;3.72;;;2.25;;
16346;SDS011;8283;48.504;13.734;2024-02-14T07:11:45;4.20;;;2.30;;
16346;SDS011;8283;48.504;13.734;2024-02-14T07:14:05;2.55;;;2.08;;
16346;SDS011;8283;48.504;13.734;2024-02-14T07:16:24;3.08;;;2.03;;
16346;SDS011;8283;48.504;13.734;2024-02-14T07:18:43;3.33;;;2.28;;
16346;SDS011;8283;48.504;13.734;2024-02-14T07:21:03;3.67;;;2.03;;
16346;SDS011;8283;48.504;13.734;2024-02-14T07:23:24;3.65;;;2.15;;
16346;SDS011;8283;48.504;13.734;2024-02-14T07:25:45;4.45;;;2.08;;
16346;SDS011;8283;48.504;13.734;2024-02-14T07:28:04;3.25;;;2.38;;
16346;SDS011;8283;48.504;13.734;2024-02-14T07:30:24;3.97;;;2.80;;
16346;SDS011;8283;48.504;13.734;2024-02-14T07:32:44;3.72;;;3.40;;
16346;SDS011;8283;48.504;13.734;2024-02-14T07:35:03;14.70;;;8.63;;
16346;SDS011;8283;48.504;13.734;2024-02-14T07:37:24;10.70;;;6.27;;
16346;SDS011;8283;48.504;13.734;2024-02-14T07:39:43;6.38;;;4.10;;
16346;SDS011;8283;48.504;13.734;2024-02-14T07:42:05;6.45;;;4.57;;
16346;SDS011;8283;48.504;13.734;2024-02-14T07:44:24;35.50;;;11.25;;
16346;SDS011;8283;48.504;13.734;2024-02-14T07:46:44;24.20;;;9.25;;
16346;SDS011;8283;48.504;13.734;2024-02-14T07:49:03;16.88;;;7.18;;
16346;SDS011;8283;48.504;13.734;2024-02-14T07:51:23;21.25;;;8.98;;
16346;SDS011;8283;48.504;13.734;2024-02-14T07:53:43;33.58;;;13.38;;
16346;SDS011;8283;48.504;13.734;2024-02-14T07:56:02;22.88;;;9.50;;
16346;SDS011;8283;48.504;13.734;2024-02-14T07:58:21;18.60;;;8.35;;
16346;SDS011;8283;48.504;13.734;2024-02-14T08:00:41;12.75;;;6.75;;
16346;SDS011;8283;48.504;13.734;2024-02-14T08:03:00;6.57;;;3.83;;
16346;SDS011;8283;48.504;13.734;2024-02-14T08:05:22;4.28;;;2.88;;
16346;SDS011;8283;48.504;13.734;2024-02-14T08:07:42;5.90;;;3.10;;
16346;SDS011;8283;48.504;13.734;2024-02-14T08:10:03;4.63;;;2.85;;
16346;SDS011;8283;48.504;13.734;2024-02-14T08:12:23;5.18;;;4.68;;
16346;SDS011;8283;48.504;13.734;2024-02-14T08:14:44;4.93;;;3.90;;
16346;SDS011;8283;48.504;13.734;2024-02-14T08:17:03;4.70;;;2.78;;
16346;SDS011;8283;48.504;13.734;2024-02-14T08:19:22;3.88;;;2.90;;
16346;SDS011;8283;48.504;13.734;2024-02-14T08:21:44;4.80;;;3.17;;
16346;SDS011;8283;48.504;13.734;2024-02-14T08:24:04;8.65;;;4.13;;
16346;SDS011;8283;48.504;13.734;2024-02-14T08:26:24;13.25;;;5.32;;
16346;SDS011;8283;48.504;13.734;2024-02-14T08:28:43;14.45;;;5.95;;
16346;SDS011;8283;48.504;13.734;2024-02-14T08:31:03;12.57;;;4.43;;
16346;SDS011;8283;48.504;13.734;2024-02-14T08:33:27;14.18;;;5.70;;
16346;SDS011;8283;48.504;13.734;2024-02-14T08:35:47;5.85;;;3.28;;
16346;SDS011;8283;48.504;13.734;2024-02-14T08:38:06;9.48;;;4.78;;
16346;SDS011;8283;48.504;13.734;2024-02-14T08:40:27;13.18;;;5.70;;
16346;SDS011;8283;48.504;13.734;2024-02-14T08:42:46;8.25;;;4.07;;
16346;SDS011;8283;48.504;13.734;2024-02-14T08:45:06;8.65;;;4.20;;
16346;SDS011;8283;48.504;13.734;2024-02-14T08:47:27;6.88;;;4.07;;
16346;SDS011;8283;48.504;13.734;2024-02-14T08:49:46;5.32;;;3.35;;
16346;SDS011;8283;48.504;13.734;2024-02-14T08:52:06;5.55;;;2.53;;
16346;SDS011;8283;48.504;13.734;2024-02-14T08:54:25;3.47;;;2.83;;
16346;SDS011;8283;48.504;13.734;2024-02-14T08:56:47;3.92;;;2.47;;
16346;SDS011;8283;48.504;13.734;2024-02-14T08:59:07;3.25;;;2.55;;
16346;SDS011;8283;48.504;13.734;2024-02-14T09:01:28;4.00;;;2.58;;
16346;SDS011;8283;48.504;13.734;2024-02-14T09:03:48;4.00;;;2.47;;
16346;SDS011;8283;48.504;13.734;2024-02-14T09:06:07;3.20;;;2.80;;
16346;SDS011;8283;48.504;13.734;2024-02-14T09:08:27;3.72;;;3.10;;
16346;SDS011;8283;48.504;13.734;2024-02-14T09:10:47;3.42;;;2.70;;
16346;SDS011;8283;48.504;13.734;2024-02-14T09:13:07;3.27;;;2.73;;
16346;SDS011;8283;48.504;13.734;2024-02-14T09:15:26;3.63;;;3.05;;
16346;SDS011;8283;48.504;13.734;2024-02-14T09:17:46;4.70;;;2.83;;
16346;SDS011;8283;48.504;13.734;2024-02-14T09:20:05;6.32;;;4.38;;
16346;SDS011;8283;48.504;13.734;2024-02-14T09:22:28;3.47;;;3.13;;
16346;SDS011;8283;48.504;13.734;2024-02-14T09:24:48;4.33;;;2.73;;
16346;SDS011;8283;48.504;13.734;2024-02-14T09:27:09;4.70;;;3.00;;
16346;SDS011;8283;48.504;13.734;2024-02-14T09:29:28;2.70;;;2.28;;
16346;SDS011;8283;48.504;13.734;2024-02-14T09:31:47;4.43;;;2.95;;
16346;SDS011;8283;48.504;13.734;2024-02-14T09:34:11;5.25;;;2.95;;
16346;SDS011;8283;48.504;13.734;2024-02-14T09:36:32;5.25;;;3.92;;
16346;SDS011;8283;48.504;13.734;2024-02-14T09:38:51;3.70;;;2.63;;
16346;SDS011;8283;48.504;13.734;2024-02-14T09:43:55;4.47;;;3.33;;
16346;SDS011;8283;48.504;13.734;2024-02-14T09:46:15;3.33;;;2.53;;
16346;SDS011;8283;48.504;13.734;2024-02-14T09:48:35;3.17;;;2.72;;
16346;SDS011;8283;48.504;13.734;2024-02-14T09:50:57;4.55;;;2.97;;
16346;SDS011;8283;48.504;13.734;2024-02-14T09:53:17;2.95;;;2.63;;
16346;SDS011;8283;48.504;13.734;2024-02-14T09:55:36;3.38;;;2.78;;
16346;SDS011;8283;48.504;13.734;2024-02-14T09:57:57;3.70;;;2.73;;
16346;SDS011;8283;48.504;13.734;2024-02-14T10:00:17;4.05;;;2.95;;
16346;SDS011;8283;48.504;13.734;2024-02-14T10:02:38;4.53;;;3.40;;
16346;SDS011;8283;48.504;13.734;2024-02-14T10:04:57;4.47;;;3.17;;
16346;SDS011;8283;48.504;13.734;2024-02-14T10:07:16;4.07;;;3.22;;
16346;SDS011;8283;48.504;13.734;2024-02-14T10:09:40;6.18;;;2.78;;
16346;SDS011;8283;48.504;13.734;2024-02-14T10:12:01;3.40;;;2.70;;
16346;SDS011;8283;48.504;13.734;2024-02-14T10:14:22;3.60;;;2.58;;
16346;SDS011;8283;48.504;13.734;2024-02-14T10:16:42;4.65;;;3.22;;
16346;SDS011;8283;48.504;13.734;2024-02-14T10:19:01;6.30;;;3.13;;
16346;SDS011;8283;48.504;13.734;2024-02-14T10:21:22;5.07;;;3.53;;
16346;SDS011;8283;48.504;13.734;2024-02-14T10:23:43;5.63;;;3.00;;
16346;SDS011;8283;48.504;13.734;2024-02-14T10:26:04;4.00;;;2.67;;
16346;SDS011;8283;48.504;13.734;2024-02-14T10:28:23;4.57;;;3.33;;
16346;SDS011;8283;48.504;13.734;2024-02-14T10:30:45;5.45;;;3.10;;
16346;SDS011;8283;48.504;13.734;2024-02-14T10:33:05;5.15;;;3.00;;
16346;SDS011;8283;48.504;13.734;2024-02-14T10:35:25;4.40;;;2.97;;
16346;SDS011;8283;48.504;13.734;2024-02-14T10:37:47;3.58;;;2.40;;
16346;SDS011;8283;48.504;13.734;2024-02-14T10:40:08;4.53;;;3.00;;
16346;SDS011;8283;48.504;13.734;2024-02-14T10:42:27;3.63;;;2.70;;
16346;SDS011;8283;48.504;13.734;2024-02-14T10:44:47;3.55;;;2.85;;
16346;SDS011;8283;48.504;13.734;2024-02-14T10:47:10;3.30;;;2.65;;
16346;SDS011;8283;48.504;13.734;2024-02-14T10:49:33;3.25;;;2.55;;
16346;SDS011;8283;48.504;13.734;2024-02-14T10:51:54;2.97;;;2.42;;
16346;SDS011;8283;48.504;13.734;2024-02-14T10:54:18;6.35;;;3.30;;
16346;SDS011;8283;48.504;13.734;2024-02-14T10:56:41;3.72;;;2.80;;
16346;SDS011;8283;48.504;13.734;2024-02-14T10:59:01;3.10;;;2.50;;
16346;SDS011;8283;48.504;13.734;2024-02-14T11:01:23;4.55;;;3.17;;
16346;SDS011;8283;48.504;13.734;2024-02-14T11:03:43;4.15;;;2.45;;
16346;SDS011;8283;48.504;13.734;2024-02-14T11:06:03;3.05;;;2.40;;
16346;SDS011;8283;48.504;13.734;2024-02-14T11:08:23;3.00;;;2.40;;
16346;SDS011;8283;48.504;13.734;2024-02-14T11:10:51;3.45;;;2.33;;
16346;SDS011;8283;48.504;13.734;2024-02-14T11:13:13;3.42;;;2.60;;
16346;SDS011;8283;48.504;13.734;2024-02-14T11:15:35;2.53;;;2.08;;
16346;SDS011;8283;48.504;13.734;2024-02-14T11:18:03;2.45;;;2.15;;
16346;SDS011;8283;48.504;13.734;2024-02-14T11:20:33;2.40;;;2.20;;
16346;SDS011;8283;48.504;13.734;2024-02-14T11:22:57;4.70;;;2.35;;
16346;SDS011;8283;48.504;13.734;2024-02-14T11:25:22;3.45;;;2.30;;
16346;SDS011;8283;48.504;13.734;2024-02-14T11:27:46;2.60;;;2.25;;
16346;SDS011;8283;48.504;13.734;2024-02-14T11:30:06;4.10;;;2.67;;
16346;SDS011;8283;48.504;13.734;2024-02-14T11:32:27;7.65;;;5.00;;
16346;SDS011;8283;48.504;13.734;2024-02-14T11:34:53;6.03;;;2.90;;
16346;SDS011;8283;48.504;13.734;2024-02-14T11:37:14;6.30;;;3.67;;
16346;SDS011;8283;48.504;13.734;2024-02-14T11:39:33;4.28;;;2.70;;
16346;SDS011;8283;48.504;13.734;2024-02-14T11:41:53;3.47;;;2.03;;
16346;SDS011;8283;48.504;13.734;2024-02-14T11:44:15;6.10;;;3.50;;
16346;SDS011;8283;48.504;13.734;2024-02-14T11:46:35;3.55;;;2.33;;
16346;SDS011;8283;48.504;13.734;2024-02-14T11:48:55;4.30;;;1.90;;
16346;SDS011;8283;48.504;13.734;2024-02-14T11:51:16;2.88;;;2.05;;
16346;SDS011;8283;48.504;13.734;2024-02-14T11:53:38;4.18;;;2.00;;
16346;SDS011;8283;48.504;13.734;2024-02-14T11:56:00;3.78;;;1.90;;
16346;SDS011;8283;48.504;13.734;2024-02-14T11:58:19;2.20;;;1.70;;
16346;SDS011;8283;48.504;13.734;2024-02-14T12:00:44;3.63;;;2.25;;
16346;SDS011;8283;48.504;13.734;2024-02-14T12:03:15;3.53;;;1.80;;
16346;SDS011;8283;48.504;13.734;2024-02-14T12:05:39;5.53;;;3.03;;
16346;SDS011;8283;48.504;13.734;2024-02-14T12:08:01;4.20;;;2.28;;
16346;SDS011;8283;48.504;13.734;2024-02-14T12:10:21;9.00;;;4.65;;
16346;SDS011;8283;48.504;13.734;2024-02-14T12:12:44;4.72;;;1.77;;
16346;SDS011;8283;48.504;13.734;2024-02-14T12:15:05;1.95;;;1.50;;
16346;SDS011;8283;48.504;13.734;2024-02-14T12:17:27;2.65;;;1.35;;
16346;SDS011;8283;48.504;13.734;2024-02-14T12:19:48;1.73;;;1.13;;
16346;SDS011;8283;48.504;13.734;2024-02-14T12:22:09;1.70;;;1.30;;
16346;SDS011;8283;48.504;13.734;2024-02-14T12:24:48;4.07;;;1.20;;
16346;SDS011;8283;48.504;13.734;2024-02-14T12:27:07;1.45;;;1.30;;
16346;SDS011;8283;48.504;13.734;2024-02-14T12:29:27;3.03;;;1.13;;
16346;SDS011;8283;48.504;13.734;2024-02-14T12:31:46;2.33;;;1.30;;
16346;SDS011;8283;48.504;13.734;2024-02-14T12:34:06;2.65;;;1.30;;
16346;SDS011;8283;48.504;13.734;2024-02-14T12:36:26;1.45;;;1.13;;
16346;SDS011;8283;48.504;13.734;2024-02-14T12:38:46;2.58;;;1.40;;
16346;SDS011;8283;48.504;13.734;2024-02-14T12:41:07;3.42;;;1.20;;
16346;SDS011;8283;48.504;13.734;2024-02-14T12:43:26;1.60;;;0.90;;
16346;SDS011;8283;48.504;13.734;2024-02-14T12:45:46;2.50;;;1.00;;
16346;SDS011;8283;48.504;13.734;2024-02-14T12:48:05;1.10;;;0.90;;
16346;SDS011;8283;48.504;13.734;2024-02-14T12:50:27;1.67;;;1.15;;
16346;SDS011;8283;48.504;13.734;2024-02-14T12:52:46;1.85;;;1.30;;
16346;SDS011;8283;48.504;13.734;2024-02-14T12:55:07;2.88;;;1.02;;
16346;SDS011;8283;48.504;13.734;2024-02-14T12:57:27;2.55;;;1.17;;
16346;SDS011;8283;48.504;13.734;2024-02-14T12:59:47;1.85;;;1.13;;
16346;SDS011;8283;48.504;13.734;2024-02-14T13:02:06;3.35;;;1.15;;
16346;SDS011;8283;48.504;13.734;2024-02-14T13:04:26;3.38;;;1.33;;
16346;SDS011;8283;48.504;13.734;2024-02-14T13:06:45;1.95;;;1.30;;
16346;SDS011;8283;48.504;13.734;2024-02-14T13:09:06;1.20;;;1.00;;
16346;SDS011;8283;48.504;13.734;2024-02-14T13:11:27;1.83;;;1.35;;
16346;SDS011;8283;48.504;13.734;2024-02-14T13:13:47;1.95;;;1.30;;
16346;SDS011;8283;48.504;13.734;2024-02-14T13:16:06;2.05;;;1.25;;
16346;SDS011;8283;48.504;13.734;2024-02-14T13:18:26;3.60;;;1.33;;
16346;SDS011;8283;48.504;13.734;2024-02-14T13:20:45;4.78;;;1.20;;
16346;SDS011;8283;48.504;13.734;2024-02-14T13:23:04;1.73;;;1.42;;
16346;SDS011;8283;48.504;13.734;2024-02-14T13:25:28;4.57;;;1.23;;
16346;SDS011;8283;48.504;13.734;2024-02-14T13:27:47;1.50;;;1.15;;
16346;SDS011;8283;48.504;13.734;2024-02-14T13:30:07;1.50;;;1.20;;
16346;SDS011;8283;48.504;13.734;2024-02-14T13:32:26;2.67;;;1.05;;
16346;SDS011;8283;48.504;13.734;2024-02-14T13:34:46;2.10;;;1.30;;
16346;SDS011;8283;48.504;13.734;2024-02-14T13:37:07;1.95;;;1.35;;
16346;SDS011;8283;48.504;13.734;2024-02-14T13:39:28;2.03;;;1.35;;
16346;SDS011;8283;48.504;13.734;2024-02-14T13:41:47;2.35;;;1.35;;
16346;SDS011;8283;48.504;13.734;2024-02-14T13:44:06;3.83;;;1.25;;
16346;SDS011;8283;48.504;13.734;2024-02-14T13:46:27;2.42;;;1.23;;
16346;SDS011;8283;48.504;13.734;2024-02-14T13:48:46;2.53;;;1.30;;
16346;SDS011;8283;48.504;13.734;2024-02-14T13:51:06;2.95;;;1.65;;
16346;SDS011;8283;48.504;13.734;2024-02-14T13:53:27;1.98;;;1.30;;
16346;SDS011;8283;48.504;13.734;2024-02-14T13:55:47;2.67;;;1.58;;
16346;SDS011;8283;48.504;13.734;2024-02-14T13:58:06;1.63;;;1.38;;
16346;SDS011;8283;48.504;13.734;2024-02-14T14:00:28;4.65;;;1.48;;
16346;SDS011;8283;48.504;13.734;2024-02-14T14:02:48;3.28;;;1.70;;
16346;SDS011;8283;48.504;13.734;2024-02-14T14:05:07;1.73;;;1.45;;
16346;SDS011;8283;48.504;13.734;2024-02-14T14:07:28;1.77;;;1.48;;
16346;SDS011;8283;48.504;13.734;2024-02-14T14:09:48;1.70;;;1.20;;
16346;SDS011;8283;48.504;13.734;2024-02-14T14:12:07;2.40;;;1.75;;